createdAt,value
2024-05-09T00:00:18.667Z,87016.80
2024-05-09T00:02:55.952Z,87026.60
2024-05-09T00:05:29.310Z,87026.60
2024-05-09T00:07:58.814Z,87031.60
2024-05-09T00:10:36.367Z,87030.00
2024-05-09T00:13:27.086Z,87030.40
2024-05-09T00:15:56.018Z,87029.60
2024-05-09T00:18:27.490Z,87035.40
2024-05-09T00:20:56.654Z,87034.00
2024-05-09T00:23:25.863Z,87035.40
2024-05-09T00:33:08.451Z,87024.60
2024-05-09T00:35:40.230Z,87028.00
2024-05-09T00:38:12.489Z,87029.00
2024-05-09T00:40:44.377Z,87033.20
2024-05-09T00:43:15.057Z,87031.60
2024-05-09T00:45:45.266Z,87037.40
2024-05-09T00:48:21.723Z,87038.40
2024-05-09T00:51:35.108Z,87040.00
2024-05-09T00:58:31.261Z,87042.60
2024-05-09T01:02:42.133Z,87048.00
2024-05-09T01:21:21.275Z,87049.40
2024-05-09T01:24:17.192Z,87049.60
2024-05-09T01:31:50.675Z,87060.40
2024-05-09T01:34:28.585Z,87060.80
2024-05-09T01:37:01.502Z,87064.00
2024-05-09T01:49:36.188Z,87075.00
2024-05-09T01:52:19.192Z,87075.20
2024-05-09T01:54:54.736Z,87075.40
2024-05-09T01:57:24.602Z,87080.20
2024-05-09T02:00:15.663Z,87085.00
2024-05-09T02:02:53.115Z,87084.20
2024-05-09T02:05:23.413Z,87074.60
2024-05-09T02:07:52.394Z,87073.80
2024-05-09T02:10:32.143Z,87079.40
2024-05-09T02:13:04.117Z,87089.00
2024-05-09T02:16:50.542Z,87091.60
2024-05-09T02:25:25.535Z,87100.40
2024-05-09T02:28:08.092Z,87103.40
2024-05-09T03:10:35.869Z,87146.20
2024-05-09T03:13:29.891Z,87152.60
2024-05-09T03:16:08.292Z,87157.60
2024-05-09T03:18:53.592Z,87163.60
2024-05-09T03:21:32.499Z,87170.20
2024-05-09T03:25:14.675Z,87177.00
2024-05-09T03:27:41.701Z,87171.00
2024-05-09T03:30:15.547Z,87175.20
2024-05-09T03:33:10.548Z,87180.20
2024-05-09T03:35:42.223Z,87193.80
2024-05-09T03:38:13.525Z,87193.40
2024-05-09T03:40:59.930Z,87195.40
2024-05-09T03:43:29.086Z,87199.20
2024-05-09T03:45:58.294Z,87203.80
2024-05-09T03:48:28.388Z,87206.40
2024-05-09T04:09:00.278Z,87246.20
2024-05-09T04:11:29.005Z,87264.00
2024-05-09T04:14:00.558Z,87269.20
2024-05-09T04:16:31.486Z,87271.80
2024-05-09T04:19:11.316Z,87280.00
2024-05-09T04:21:40.278Z,87281.40
2024-05-09T04:24:14.424Z,87278.60
2024-05-09T04:26:43.644Z,87281.20
2024-05-09T04:29:13.689Z,87281.80
2024-05-09T04:31:42.650Z,87284.80
2024-05-09T04:34:11.511Z,87283.80
2024-05-09T04:36:43.979Z,87289.40
2024-05-09T04:39:16.191Z,87289.80
2024-05-09T04:41:45.053Z,87289.00
2024-05-09T04:44:15.444Z,87294.80
2024-05-09T04:46:47.546Z,87300.80
2024-05-09T04:49:16.447Z,87302.40
2024-05-09T04:51:45.260Z,87303.80
2024-05-09T04:54:26.041Z,87307.00
2024-05-09T04:57:02.758Z,87309.80
2024-05-09T04:59:33.809Z,87315.60
2024-05-09T05:02:03.233Z,87322.80
2024-05-09T05:04:32.465Z,87325.00
2024-05-09T05:07:02.901Z,87326.40
2024-05-09T05:09:38.123Z,87323.20
2024-05-09T05:12:27.568Z,87327.60
2024-05-09T05:14:56.251Z,87330.80
2024-05-09T05:17:26.655Z,87332.80
2024-05-09T05:19:55.728Z,87336.40
2024-05-09T05:22:24.395Z,87343.00
2024-05-09T05:24:53.195Z,87341.80
2024-05-09T05:27:21.841Z,87346.80
2024-05-09T05:29:50.636Z,87354.20
2024-05-09T05:32:19.952Z,87358.60
2024-05-09T05:34:51.148Z,87356.20
2024-05-09T05:37:20.186Z,87358.20
2024-05-09T05:39:48.889Z,87355.20
2024-05-09T05:42:17.663Z,87362.80
2024-05-09T05:44:46.440Z,87367.60
2024-05-09T05:47:17.673Z,87363.80
2024-05-09T05:49:46.247Z,87364.80
2024-05-09T05:52:15.082Z,87371.40
2024-05-09T05:54:44.207Z,87378.60
2024-05-09T05:57:13.970Z,87382.00
2024-05-09T05:59:42.467Z,87382.40
2024-05-09T06:02:11.754Z,87384.60
2024-05-09T06:04:40.754Z,87387.20
2024-05-09T06:07:09.301Z,87386.80
2024-05-09T06:09:37.828Z,87391.60
2024-05-09T06:12:07.086Z,87400.60
2024-05-09T06:14:35.757Z,87405.40
2024-05-09T06:17:04.717Z,87406.00
2024-05-09T06:19:33.463Z,87410.60
2024-05-09T06:22:03.355Z,87409.40
2024-05-09T06:24:32.003Z,87413.80
2024-05-09T06:27:04.139Z,87415.60
2024-05-09T06:29:33.451Z,87419.20
2024-05-09T06:32:05.005Z,87425.60
2024-05-09T06:34:34.201Z,87420.80
2024-05-09T06:37:02.813Z,87426.40
2024-05-09T06:39:31.937Z,87427.20
2024-05-09T06:42:00.921Z,87423.80
2024-05-09T06:44:31.801Z,87433.60
2024-05-09T06:47:13.509Z,87438.40
2024-05-09T06:53:11.512Z,87440.80
2024-05-09T06:53:36.740Z,87439.80
2024-05-09T06:55:44.614Z,87444.60
2024-05-09T06:58:13.899Z,87444.20
2024-05-09T07:00:42.782Z,87446.20
2024-05-09T07:03:14.707Z,87457.20
2024-05-09T07:05:47.075Z,87464.20
2024-05-09T07:08:18.018Z,87458.80
2024-05-09T07:10:46.964Z,87462.00
2024-05-09T07:13:16.410Z,87464.80
2024-05-09T07:16:03.629Z,87470.40
2024-05-09T07:24:53.321Z,87473.60
2024-05-09T07:27:28.227Z,87474.40
2024-05-09T07:30:03.947Z,87480.60
2024-05-09T07:32:37.731Z,87483.40
2024-05-09T07:35:09.486Z,87487.20
2024-05-09T07:38:01.308Z,87488.20
2024-05-09T07:40:35.858Z,87487.80
2024-05-09T07:43:21.799Z,87491.20
2024-05-09T07:46:37.793Z,87488.40
2024-05-09T07:50:35.103Z,87501.20
2024-05-09T07:54:55.310Z,87502.80
2024-05-09T07:57:24.000Z,87512.40
2024-05-09T07:59:55.548Z,87514.00
2024-05-09T08:02:33.872Z,87516.60
2024-05-09T08:05:09.364Z,87526.80
2024-05-09T08:07:39.902Z,87530.00
2024-05-09T08:10:21.911Z,87539.40
2024-05-09T08:13:01.740Z,87538.80
2024-05-09T08:15:33.549Z,87542.40
2024-05-09T08:18:08.143Z,87549.40
2024-05-09T08:20:51.624Z,87550.40
2024-05-09T08:23:24.102Z,87558.80
2024-05-09T08:26:02.582Z,87564.00
2024-05-09T08:28:34.289Z,87565.40
2024-05-09T08:31:14.583Z,87568.60
2024-05-09T08:33:54.755Z,87570.60
2024-05-09T08:36:23.319Z,87580.80
2024-05-09T08:38:53.542Z,87580.60
2024-05-09T08:42:01.587Z,87586.20
2024-05-09T08:44:30.827Z,87585.20
2024-05-09T08:47:10.602Z,87591.60
2024-05-09T08:49:46.138Z,87594.80
2024-05-09T08:52:19.077Z,87596.00
2024-05-09T08:55:13.107Z,87608.80
2024-05-09T08:57:43.740Z,87609.00
2024-05-09T09:00:18.117Z,87614.00
2024-05-09T09:02:55.094Z,87614.60
2024-05-09T09:05:32.271Z,87610.20
2024-05-09T09:08:01.597Z,87617.40
2024-05-09T09:10:32.400Z,87620.60
2024-05-09T09:13:08.001Z,87621.20
2024-05-09T09:15:48.258Z,87634.80
2024-05-09T09:18:19.443Z,87635.20
2024-05-09T09:20:48.643Z,87641.40
2024-05-09T09:23:18.684Z,87639.40
2024-05-09T09:25:48.147Z,87643.00
2024-05-09T09:28:19.189Z,87647.00
2024-05-09T09:30:48.236Z,87651.20
2024-05-09T09:33:19.618Z,87659.40
2024-05-09T09:35:48.948Z,87662.00
2024-05-09T09:38:24.312Z,87665.80
2024-05-09T09:40:54.119Z,87660.40
2024-05-09T09:43:24.013Z,87659.00
2024-05-09T09:46:00.593Z,87669.40
2024-05-09T09:48:32.001Z,87670.00
2024-05-09T09:51:02.081Z,87668.20
2024-05-09T09:53:31.696Z,87659.60
2024-05-09T09:56:03.862Z,87659.40
2024-05-09T09:58:37.254Z,87665.20
2024-05-09T10:01:06.422Z,87668.00
2024-05-09T10:03:35.439Z,87663.40
2024-05-09T10:06:06.855Z,87669.20
2024-05-09T10:08:37.846Z,87673.80
2024-05-09T10:11:08.001Z,87682.20
2024-05-09T10:13:37.455Z,87687.60
2024-05-09T10:16:12.258Z,87685.80
2024-05-09T10:18:42.538Z,87687.40
2024-05-09T10:21:22.443Z,87693.00
2024-05-09T10:24:08.043Z,87695.80
2024-05-09T10:26:39.135Z,87697.00
2024-05-09T10:29:19.971Z,87698.40
2024-05-09T10:31:49.870Z,87705.40
2024-05-09T10:34:24.119Z,87707.00
2024-05-09T10:36:56.795Z,87708.20
2024-05-09T10:39:27.257Z,87711.80
2024-05-09T10:41:56.276Z,87708.80
2024-05-09T10:44:25.282Z,87715.40
2024-05-09T10:49:30.260Z,87724.20
2024-05-09T10:51:59.443Z,87724.40
2024-05-09T10:54:40.073Z,87720.40
2024-05-09T10:57:08.899Z,87725.40
2024-05-09T10:59:39.945Z,87724.80
2024-05-09T11:02:08.867Z,87724.60
2024-05-09T11:04:41.652Z,87724.20
2024-05-09T11:07:17.982Z,87724.60
2024-05-09T11:09:47.498Z,87723.20
2024-05-09T11:12:16.776Z,87728.40
2024-05-09T11:14:56.118Z,87729.60
2024-05-09T11:17:24.761Z,87736.00
2024-05-09T11:19:55.521Z,87729.60
2024-05-09T11:22:31.791Z,87731.40
2024-05-09T11:27:46.784Z,87735.60
2024-05-09T11:30:29.654Z,87733.80
2024-05-09T11:33:00.250Z,87739.20
2024-05-09T11:35:29.578Z,87739.20
2024-05-09T11:37:58.407Z,87741.80
2024-05-09T11:43:08.313Z,87752.00
2024-05-09T11:45:36.685Z,87751.20
2024-05-09T11:48:06.121Z,87759.20
2024-05-09T11:50:35.989Z,87762.60
2024-05-09T11:53:04.995Z,87762.60
2024-05-09T11:55:36.928Z,87759.20
2024-05-09T11:58:06.616Z,87765.00
2024-05-09T12:02:58.731Z,87764.20
2024-05-09T12:05:28.981Z,87763.00
2024-05-09T12:07:57.910Z,87768.00
2024-05-09T12:10:33.048Z,87767.60
2024-05-09T12:13:06.678Z,87780.20
2024-05-09T12:15:39.747Z,87784.40
2024-05-09T12:18:09.622Z,87787.80
2024-05-09T12:20:40.221Z,87794.00
2024-05-09T12:23:10.790Z,87793.40
2024-05-09T12:25:44.115Z,87796.80
2024-05-09T12:28:13.389Z,87803.40
2024-05-09T12:30:42.352Z,87803.60
2024-05-09T12:33:13.917Z,87807.20
2024-05-09T12:35:46.513Z,87804.40
2024-05-09T12:38:17.445Z,87807.80
2024-05-09T12:40:46.958Z,87807.60
2024-05-09T12:43:16.303Z,87811.00
2024-05-09T12:45:45.760Z,87804.00
2024-05-09T12:48:14.978Z,87809.20
2024-05-09T12:50:46.085Z,87810.60
2024-05-09T12:53:15.375Z,87815.60
2024-05-09T12:55:53.432Z,87817.80
2024-05-09T12:58:28.477Z,87818.00
2024-05-09T13:01:22.315Z,87819.40
2024-05-09T13:03:55.456Z,87822.60
2024-05-09T13:06:27.355Z,87823.80
2024-05-09T13:08:56.831Z,87825.40
2024-05-09T13:11:25.692Z,87822.60
2024-05-09T13:13:55.027Z,87824.80
2024-05-09T13:16:23.937Z,87826.20
2024-05-09T13:18:53.589Z,87832.20
2024-05-09T13:21:22.517Z,87836.00
2024-05-09T13:23:51.835Z,87836.00
2024-05-09T13:26:20.996Z,87834.80
2024-05-09T13:28:49.821Z,87837.20
2024-05-09T13:31:20.565Z,87838.60
2024-05-09T13:33:49.551Z,87838.60
2024-05-09T13:36:18.838Z,87841.00
2024-05-09T13:38:48.205Z,87842.60
2024-05-09T13:41:16.943Z,87839.20
2024-05-09T13:43:45.731Z,87839.00
2024-05-09T13:46:14.903Z,87837.00
2024-05-09T13:48:43.663Z,87836.40
2024-05-09T13:51:12.910Z,87834.60
2024-05-09T13:53:42.011Z,87835.20
2024-05-09T13:56:11.079Z,87834.00
2024-05-09T13:58:40.440Z,87834.40
2024-05-09T14:01:09.332Z,87836.80
2024-05-09T14:03:38.928Z,87832.80
2024-05-09T14:06:11.291Z,87834.80
2024-05-09T14:08:41.740Z,87831.40
2024-05-09T14:11:10.884Z,87838.40
2024-05-09T14:13:39.815Z,87837.40
2024-05-09T14:16:09.265Z,87838.00
2024-05-09T14:18:38.430Z,87838.60
2024-05-09T14:21:07.577Z,87836.60
2024-05-09T14:23:36.566Z,87838.20
2024-05-09T14:26:06.306Z,87836.00
2024-05-09T14:28:35.081Z,87834.20
2024-05-09T14:31:04.090Z,87830.80
2024-05-09T14:33:33.102Z,87825.60
2024-05-09T14:36:02.132Z,87823.20
2024-05-09T14:38:31.109Z,87820.20
2024-05-09T14:40:59.995Z,87820.00
2024-05-09T14:43:29.130Z,87817.80
2024-05-09T14:45:58.568Z,87822.60
2024-05-09T14:48:27.833Z,87828.00
2024-05-09T14:50:56.659Z,87826.20
2024-05-09T14:53:29.102Z,87826.80
2024-05-09T14:55:58.737Z,87826.20
2024-05-09T14:58:27.938Z,87827.60
2024-05-09T15:00:56.964Z,87826.40
2024-05-09T15:03:25.953Z,87825.00
2024-05-09T15:05:55.035Z,87821.40
2024-05-09T15:08:24.330Z,87816.40
2024-05-09T15:10:53.415Z,87816.40
2024-05-09T15:13:23.032Z,87819.80
2024-05-09T15:15:52.194Z,87823.20
2024-05-09T15:18:21.878Z,87820.80
2024-05-09T15:20:51.351Z,87814.40
2024-05-09T15:23:21.014Z,87815.40
2024-05-09T15:25:49.919Z,87816.60
2024-05-09T15:28:18.827Z,87815.20
2024-05-09T15:30:52.197Z,87811.60
2024-05-09T15:33:28.324Z,87806.40
2024-05-09T15:38:31.044Z,87804.80
2024-05-09T15:41:00.119Z,87799.40
2024-05-09T15:43:29.708Z,87802.40
2024-05-09T15:45:59.047Z,87800.20
2024-05-09T15:48:28.519Z,87797.00
2024-05-09T15:50:57.448Z,87791.00
2024-05-09T15:53:26.565Z,87793.80
2024-05-09T15:55:55.801Z,87787.60
2024-05-09T15:58:26.263Z,87778.40
2024-05-09T16:00:55.454Z,87776.20
2024-05-09T16:03:24.731Z,87779.40
2024-05-09T16:05:54.288Z,87779.80
2024-05-09T16:08:23.574Z,87773.60
2024-05-09T16:10:53.293Z,87778.40
2024-05-09T16:13:22.862Z,87774.00
2024-05-09T16:15:52.351Z,87772.80
2024-05-09T16:18:22.180Z,87770.60
2024-05-09T16:20:51.602Z,87772.80
2024-05-09T16:23:20.479Z,87769.40
2024-05-09T16:25:49.219Z,87769.00
2024-05-09T16:28:20.850Z,87767.80
2024-05-09T16:30:54.559Z,87763.20
2024-05-09T16:33:26.667Z,87752.20
2024-05-09T16:37:48.387Z,87748.00
2024-05-09T16:40:25.687Z,87747.80
2024-05-09T16:43:05.427Z,87742.00
2024-05-09T16:45:34.994Z,87736.60
2024-05-09T16:48:07.039Z,87729.20
2024-05-09T16:50:37.134Z,87724.60
2024-05-09T16:53:07.326Z,87719.00
2024-05-09T16:55:37.311Z,87722.00
2024-05-09T16:58:08.960Z,87711.00
2024-05-09T17:00:42.348Z,87706.80
2024-05-09T17:03:15.860Z,87704.60
2024-05-09T17:05:47.421Z,87701.20
2024-05-09T17:11:36.345Z,87690.80
2024-05-09T17:14:05.717Z,87688.20
2024-05-09T17:16:34.838Z,87687.20
2024-05-09T17:19:03.811Z,87690.60
2024-05-09T17:21:32.792Z,87689.60
2024-05-09T17:27:07.801Z,87684.80
2024-05-09T17:29:38.199Z,87675.80
2024-05-09T17:32:08.692Z,87677.00
2024-05-09T17:34:37.507Z,87674.00
2024-05-09T17:37:06.898Z,87670.20
2024-05-09T17:39:36.080Z,87672.40
2024-05-09T17:42:05.571Z,87666.80
2024-05-09T17:44:34.278Z,87661.40
2024-05-09T17:47:04.027Z,87658.20
2024-05-09T17:49:33.189Z,87651.20
2024-05-09T17:52:03.490Z,87649.20
2024-05-09T17:54:32.688Z,87649.80
2024-05-09T17:57:02.295Z,87647.60
2024-05-09T17:59:31.353Z,87642.20
2024-05-09T18:02:01.265Z,87647.40
2024-05-09T18:04:33.481Z,87638.00
2024-05-09T18:07:09.511Z,87630.60
2024-05-09T18:14:52.403Z,87625.60
2024-05-09T18:17:23.562Z,87623.00
2024-05-09T18:19:53.973Z,87623.00
2024-05-09T18:22:27.453Z,87626.40
2024-05-09T18:24:56.466Z,87619.00
2024-05-09T18:27:29.189Z,87609.40
2024-05-09T18:29:59.374Z,87611.80
2024-05-09T18:32:30.847Z,87605.80
2024-05-09T18:35:00.109Z,87604.20
2024-05-09T18:37:29.726Z,87605.20
2024-05-09T18:39:58.459Z,87601.00
2024-05-09T18:42:27.150Z,87598.20
2024-05-09T18:44:56.267Z,87609.40
2024-05-09T18:47:25.079Z,87600.00
2024-05-09T18:49:53.971Z,87595.40
2024-05-09T18:52:22.743Z,87595.40
2024-05-09T18:54:52.883Z,87595.20
2024-05-09T18:57:21.708Z,87589.80
2024-05-09T18:59:50.360Z,87584.40
2024-05-09T19:02:19.330Z,87585.40
2024-05-09T19:04:49.322Z,87593.20
2024-05-09T19:07:20.077Z,87586.20
2024-05-09T19:09:49.591Z,87589.80
2024-05-09T19:12:18.701Z,87578.60
2024-05-09T19:14:47.542Z,87583.00
2024-05-09T19:17:16.315Z,87577.00
2024-05-09T19:19:45.206Z,87579.60
2024-05-09T19:22:14.442Z,87579.40
2024-05-09T19:24:43.732Z,87573.60
2024-05-09T19:27:13.208Z,87568.80
2024-05-09T19:29:42.483Z,87570.40
2024-05-09T19:32:11.539Z,87570.20
2024-05-09T19:34:40.615Z,87566.60
2024-05-09T19:37:24.774Z,87560.60
2024-05-09T19:42:22.820Z,87555.00
2024-05-09T19:44:51.721Z,87557.20
2024-05-09T19:47:20.663Z,87554.40
2024-05-09T19:49:50.028Z,87555.20
2024-05-09T19:52:18.963Z,87551.60
2024-05-09T19:54:51.056Z,87549.80
2024-05-09T19:57:21.212Z,87545.80
2024-05-09T19:59:49.969Z,87542.20
2024-05-09T20:02:18.817Z,87533.20
2024-05-09T20:04:48.555Z,87527.20
2024-05-09T20:07:17.497Z,87530.00
2024-05-09T20:09:46.442Z,87527.20
2024-05-09T20:12:15.396Z,87528.80
2024-05-09T20:14:44.273Z,87526.80
2024-05-09T20:17:12.991Z,87525.40
2024-05-09T20:19:45.058Z,87521.40
2024-05-09T20:22:14.218Z,87512.60
2024-05-09T20:24:43.312Z,87502.80
2024-05-09T20:27:13.115Z,87515.20
2024-05-09T20:29:41.921Z,87520.00
2024-05-09T20:32:10.804Z,87514.20
2024-05-09T20:34:40.442Z,87512.80
2024-05-09T20:37:10.077Z,87506.20
2024-05-09T20:39:38.870Z,87506.20
2024-05-09T20:42:07.690Z,87500.80
2024-05-09T20:44:36.686Z,87507.20
2024-05-09T20:47:05.757Z,87502.00
2024-05-09T20:49:35.183Z,87506.20
2024-05-09T20:52:04.732Z,87508.80
2024-05-09T20:54:33.873Z,87495.60
2024-05-09T20:57:03.715Z,87492.80
2024-05-09T20:59:33.499Z,87492.80
2024-05-09T21:05:12.724Z,87486.60
2024-05-09T21:07:41.585Z,87488.60
2024-05-09T21:10:15.856Z,87493.20
2024-05-09T21:12:51.119Z,87493.20
2024-05-09T21:15:19.882Z,87487.60
2024-05-09T21:17:49.239Z,87494.00
2024-05-09T21:20:23.900Z,87482.80
2024-05-09T21:22:58.710Z,87488.60
2024-05-09T21:25:27.727Z,87483.40
2024-05-09T21:27:57.248Z,87483.00
2024-05-09T21:30:37.057Z,87485.40
2024-05-09T21:33:12.024Z,87480.60
2024-05-09T21:35:44.618Z,87480.40
2024-05-09T21:38:15.179Z,87473.20
2024-05-09T21:40:45.405Z,87474.20
2024-05-09T21:43:15.295Z,87472.40
2024-05-09T21:45:45.253Z,87470.20
2024-05-09T21:48:56.119Z,87470.60
2024-05-09T21:51:24.640Z,87459.80
2024-05-09T21:53:53.003Z,87462.80
2024-05-09T21:56:21.703Z,87466.40
2024-05-09T21:58:49.831Z,87463.60
2024-05-09T22:01:19.026Z,87460.00
2024-05-09T22:03:47.580Z,87462.60
2024-05-09T22:06:15.915Z,87455.40
2024-05-09T22:08:44.064Z,87460.00
2024-05-09T22:11:12.232Z,87449.00
2024-05-09T22:13:40.372Z,87455.80
2024-05-09T22:16:09.551Z,87462.00
2024-05-09T22:18:37.987Z,87457.40
2024-05-09T22:21:06.299Z,87451.40
2024-05-09T22:23:34.628Z,87454.00
2024-05-09T22:26:03.509Z,87448.60
2024-05-09T22:28:34.508Z,87446.40
2024-05-09T22:31:03.955Z,87443.80
2024-05-09T22:33:32.531Z,87443.40
2024-05-09T22:36:00.937Z,87443.20
2024-05-09T22:38:29.106Z,87444.20
2024-05-09T22:41:23.633Z,87442.00
2024-05-09T22:43:52.174Z,87437.60
2024-05-09T22:46:22.325Z,87438.80
2024-05-09T22:48:50.892Z,87438.40
2024-05-09T22:51:19.659Z,87440.40
2024-05-09T22:53:48.430Z,87433.40
2024-05-09T22:58:47.385Z,87428.00
2024-05-09T23:01:16.949Z,87426.00
2024-05-09T23:03:46.001Z,87420.40
2024-05-09T23:06:55.570Z,87423.60
2024-05-09T23:09:23.903Z,87422.60
2024-05-09T23:11:52.615Z,87419.20
2024-05-09T23:14:21.073Z,87421.40
2024-05-09T23:22:56.502Z,87408.00
2024-05-09T23:25:25.651Z,87403.60
2024-05-09T23:27:54.856Z,87412.40
2024-05-09T23:30:33.356Z,87403.40
2024-05-09T23:33:08.362Z,87408.20
2024-05-09T23:35:37.949Z,87407.40
2024-05-09T23:38:07.033Z,87409.00
2024-05-09T23:40:41.003Z,87403.40
2024-05-09T23:43:13.190Z,87395.80
2024-05-09T23:45:43.397Z,87405.20
2024-05-09T23:51:16.892Z,87399.40
2024-05-09T23:53:49.530Z,87396.80
2024-05-09T23:56:19.387Z,87403.60
2024-05-09T23:58:54.583Z,87405.80
